createdAt,value
2018-11-28T00:00:56.247Z,26.40
2018-11-28T00:03:23.763Z,27.75
2018-11-28T00:05:51.332Z,26.82
2018-11-28T00:08:18.882Z,27.87
2018-11-28T00:10:46.444Z,28.35
2018-11-28T00:13:13.922Z,28.80
2018-11-28T00:15:41.471Z,25.68
2018-11-28T00:18:08.934Z,26.70
2018-11-28T00:20:36.446Z,21.73
2018-11-28T00:23:04.349Z,23.92
2018-11-28T00:25:32.020Z,23.52
2018-11-28T00:27:59.497Z,27.07
2018-11-28T00:30:27.012Z,26.02
2018-11-28T00:32:54.512Z,26.25
2018-11-28T00:35:22.680Z,24.45
2018-11-28T00:37:50.122Z,25.30
2018-11-28T00:40:18.183Z,24.72
2018-11-28T00:42:45.730Z,27.52
2018-11-28T00:45:14.791Z,23.15
2018-11-28T00:47:42.301Z,27.20
2018-11-28T00:50:30.039Z,28.45
2018-11-28T00:52:57.543Z,25.75
2018-11-28T00:55:25.070Z,24.63
2018-11-28T00:57:52.570Z,23.75
2018-11-28T01:00:21.751Z,24.57
2018-11-28T01:02:49.476Z,25.37
2018-11-28T01:05:17.008Z,23.92
2018-11-28T01:07:45.345Z,24.72
2018-11-28T01:10:16.743Z,25.55
2018-11-28T01:12:44.404Z,26.20
2018-11-28T01:15:13.636Z,27.45
2018-11-28T01:17:41.111Z,28.38
2018-11-28T01:20:11.903Z,26.50
2018-11-28T01:22:39.366Z,28.05
2018-11-28T01:25:09.252Z,25.72
2018-11-28T01:27:37.289Z,24.32
2018-11-28T01:30:09.453Z,24.30
2018-11-28T01:32:37.027Z,22.42
2018-11-28T01:35:05.819Z,23.85
2018-11-28T01:37:33.326Z,21.68
2018-11-28T01:40:01.335Z,23.50
2018-11-28T01:42:28.838Z,24.65
2018-11-28T01:44:56.723Z,20.68
2018-11-28T01:47:24.227Z,26.00
2018-11-28T01:49:51.702Z,23.75
2018-11-28T01:52:19.207Z,23.75
2018-11-28T01:54:46.659Z,26.27
2018-11-28T01:57:14.318Z,25.43
2018-11-28T01:59:41.838Z,25.05
2018-11-28T02:02:09.322Z,26.80
2018-11-28T02:04:36.851Z,25.65
2018-11-28T02:07:05.418Z,25.60
2018-11-28T02:09:33.319Z,27.87
2018-11-28T02:12:01.206Z,24.98
2018-11-28T02:14:28.687Z,23.18
2018-11-28T02:16:56.222Z,25.70
2018-11-28T02:19:23.698Z,27.35
2018-11-28T02:21:51.195Z,25.00
2018-11-28T02:24:18.647Z,28.40
2018-11-28T02:26:46.098Z,26.27
2018-11-28T02:29:13.602Z,23.87
2018-11-28T02:31:41.159Z,25.75
2018-11-28T02:34:08.747Z,21.27
2018-11-28T02:36:36.467Z,24.45
2018-11-28T02:39:07.733Z,25.23
2018-11-28T02:41:35.260Z,24.25
2018-11-28T02:44:03.061Z,22.37
2018-11-28T02:46:31.049Z,24.07
2018-11-28T02:48:58.545Z,24.72
2018-11-28T02:51:26.044Z,21.80
2018-11-28T02:53:53.679Z,24.65
2018-11-28T02:56:21.126Z,24.43
2018-11-28T02:58:48.578Z,23.87
2018-11-28T03:01:16.107Z,23.73
2018-11-28T03:03:43.595Z,26.25
2018-11-28T03:06:11.343Z,19.90
2018-11-28T03:08:38.902Z,19.60
2018-11-28T03:11:06.390Z,19.40
2018-11-28T03:13:33.878Z,21.07
2018-11-28T03:16:02.054Z,21.33
2018-11-28T03:18:29.596Z,26.70
2018-11-28T03:20:57.176Z,21.70
2018-11-28T03:23:24.769Z,20.70
2018-11-28T03:25:52.959Z,24.55
2018-11-28T03:28:20.481Z,23.30
2018-11-28T03:30:48.034Z,24.77
2018-11-28T03:33:15.644Z,26.65
2018-11-28T03:35:43.083Z,24.15
2018-11-28T03:38:10.584Z,24.50
2018-11-28T03:40:38.095Z,26.75
2018-11-28T03:43:06.135Z,20.57
2018-11-28T03:45:33.841Z,18.23
2018-11-28T03:50:34.650Z,23.50
2018-11-28T03:53:02.235Z,18.62
2018-11-28T03:55:29.775Z,19.00
2018-11-28T03:57:57.215Z,19.32
2018-11-28T04:00:24.689Z,26.25
2018-11-28T04:02:52.211Z,21.55
2018-11-28T04:05:19.628Z,21.10
2018-11-28T04:07:47.097Z,21.70
2018-11-28T04:10:15.131Z,19.90
2018-11-28T04:12:43.357Z,18.37
2018-11-28T04:15:12.269Z,20.23
2018-11-28T04:17:39.791Z,16.85
2018-11-28T04:20:12.195Z,18.85
2018-11-28T04:22:39.706Z,17.10
2018-11-28T04:25:08.380Z,18.23
2018-11-28T04:27:35.908Z,18.07
2018-11-28T04:30:03.941Z,18.12
2018-11-28T04:32:31.444Z,20.37
2018-11-28T04:34:58.927Z,17.62
2018-11-28T04:37:26.492Z,18.12
2018-11-28T04:39:53.998Z,19.90
2018-11-28T04:42:21.484Z,20.15
2018-11-28T04:44:48.934Z,21.70
2018-11-28T04:47:16.376Z,20.55
2018-11-28T04:49:43.827Z,21.62
2018-11-28T04:52:11.287Z,17.82
2018-11-28T04:54:38.703Z,16.37
2018-11-28T04:57:06.278Z,21.93
2018-11-28T04:59:33.689Z,19.60
2018-11-28T05:02:01.317Z,21.15
2018-11-28T05:04:28.721Z,18.37
2018-11-28T05:07:29.692Z,22.40
2018-11-28T05:09:59.795Z,19.90
2018-11-28T05:12:27.429Z,20.45
2018-11-28T05:14:54.933Z,18.12
2018-11-28T05:17:22.796Z,20.17
2018-11-28T05:19:50.348Z,18.92
2018-11-28T05:22:17.931Z,23.98
2018-11-28T05:24:45.450Z,17.23
2018-11-28T05:27:13.070Z,20.55
2018-11-28T05:29:40.514Z,20.72
2018-11-28T05:32:08.129Z,20.92
2018-11-28T05:34:35.566Z,19.02
2018-11-28T05:37:05.125Z,19.70
2018-11-28T05:39:32.623Z,20.10
2018-11-28T05:42:00.219Z,19.20
2018-11-28T05:44:27.732Z,19.95
2018-11-28T05:46:55.257Z,22.52
2018-11-28T05:49:22.746Z,20.50
2018-11-28T05:51:50.307Z,19.52
2018-11-28T05:54:17.779Z,20.17
2018-11-28T05:56:45.214Z,19.45
2018-11-28T05:59:12.702Z,19.42
2018-11-28T06:01:40.149Z,18.32
2018-11-28T06:04:07.660Z,17.70
2018-11-28T06:06:35.243Z,23.25
2018-11-28T06:09:03.136Z,15.03
2018-11-28T06:11:30.646Z,20.75
2018-11-28T06:13:58.175Z,19.65
2018-11-28T06:16:25.728Z,20.05
2018-11-28T06:18:53.147Z,17.15
2018-11-28T06:21:20.666Z,17.50
2018-11-28T06:23:48.210Z,19.98
2018-11-28T06:26:15.673Z,19.40
2018-11-28T06:28:43.214Z,21.70
2018-11-28T06:31:10.713Z,19.52
2018-11-28T06:33:38.320Z,22.77
2018-11-28T06:36:05.857Z,21.35
2018-11-28T06:38:33.327Z,20.57
2018-11-28T06:41:01.112Z,18.05
2018-11-28T06:43:28.649Z,19.45
2018-11-28T06:45:56.740Z,18.37
2018-11-28T06:48:24.186Z,21.10
2018-11-28T06:50:51.729Z,21.90
2018-11-28T06:53:19.381Z,17.87
2018-11-28T06:55:46.882Z,18.65
2018-11-28T06:58:14.497Z,18.75
2018-11-28T07:00:42.028Z,20.75
2018-11-28T07:03:09.533Z,24.43
2018-11-28T07:05:37.050Z,22.32
2018-11-28T07:08:05.909Z,19.75
2018-11-28T07:10:33.479Z,21.87
2018-11-28T07:13:01.869Z,20.62
2018-11-28T07:15:29.387Z,22.13
2018-11-28T07:18:07.078Z,20.95
2018-11-28T07:20:34.604Z,21.82
2018-11-28T07:23:02.596Z,18.65
2018-11-28T07:25:30.156Z,18.50
2018-11-28T07:27:58.074Z,21.15
2018-11-28T07:30:25.611Z,19.67
2018-11-28T07:32:54.895Z,22.70
2018-11-28T07:35:22.386Z,23.30
2018-11-28T07:37:49.883Z,21.80
2018-11-28T07:40:19.542Z,21.35
2018-11-28T07:42:57.920Z,23.52
2018-11-28T07:45:25.357Z,23.57
2018-11-28T07:47:52.837Z,23.77
2018-11-28T07:50:20.239Z,20.48
2018-11-28T07:52:47.654Z,19.92
2018-11-28T07:55:15.173Z,21.70
2018-11-28T07:57:42.561Z,23.10
2018-11-28T08:00:12.186Z,22.32
2018-11-28T08:02:39.951Z,24.65
2018-11-28T08:05:08.377Z,27.45
2018-11-28T08:07:35.809Z,24.52
2018-11-28T08:10:03.901Z,23.73
2018-11-28T08:12:31.319Z,25.12
2018-11-28T08:14:58.777Z,25.20
2018-11-28T08:17:26.214Z,22.73
2018-11-28T08:19:53.640Z,23.42
2018-11-28T08:22:21.127Z,26.65
2018-11-28T08:24:48.591Z,27.17
2018-11-28T08:27:16.037Z,28.05
2018-11-28T08:29:48.808Z,28.70
2018-11-28T08:32:16.254Z,29.50
2018-11-28T08:34:43.683Z,30.00
2018-11-28T08:37:11.112Z,26.30
2018-11-28T08:39:38.498Z,30.05
2018-11-28T08:42:05.991Z,31.27
2018-11-28T08:44:33.426Z,28.05
2018-11-28T08:47:00.895Z,29.23
2018-11-28T08:49:28.386Z,32.10
2018-11-28T08:51:55.773Z,30.30
2018-11-28T08:54:23.228Z,32.08
2018-11-28T08:56:50.650Z,29.80
2018-11-28T08:59:18.063Z,29.12
2018-11-28T09:01:45.522Z,29.72
2018-11-28T09:04:12.956Z,31.93
2018-11-28T09:06:40.496Z,31.42
2018-11-28T09:09:07.987Z,31.17
2018-11-28T09:11:35.902Z,29.45
2018-11-28T09:14:04.697Z,31.90
2018-11-28T09:16:30.819Z,31.52
2018-11-28T09:18:58.286Z,30.30
2018-11-28T09:21:25.694Z,29.75
2018-11-28T09:23:53.151Z,29.32
2018-11-28T09:26:20.595Z,30.43
2018-11-28T09:28:48.074Z,31.33
2018-11-28T09:31:15.965Z,28.40
2018-11-28T09:33:43.576Z,30.72
2018-11-28T09:36:13.947Z,29.85
2018-11-28T09:38:41.407Z,31.15
2018-11-28T09:41:08.843Z,32.95
2018-11-28T09:43:36.295Z,31.57
2018-11-28T09:46:03.766Z,32.98
2018-11-28T09:48:31.215Z,34.27
2018-11-28T09:50:58.657Z,31.40
2018-11-28T09:53:26.099Z,32.95
2018-11-28T09:55:53.541Z,32.88
2018-11-28T09:58:21.012Z,30.37
2018-11-28T10:00:48.456Z,32.00
2018-11-28T10:03:15.940Z,30.90
2018-11-28T10:05:43.411Z,30.90
2018-11-28T10:08:10.879Z,32.00
2018-11-28T10:10:38.292Z,29.63
2018-11-28T10:13:05.861Z,33.53
2018-11-28T10:15:35.781Z,33.20
2018-11-28T10:18:01.182Z,30.20
2018-11-28T10:20:28.786Z,32.10
2018-11-28T10:22:56.779Z,30.50
2018-11-28T10:25:25.079Z,31.10
2018-11-28T10:27:58.964Z,30.60
2018-11-28T10:30:29.208Z,31.80
2018-11-28T10:32:56.172Z,31.63
2018-11-28T10:35:23.643Z,30.30
2018-11-28T10:37:51.106Z,30.40
2018-11-28T10:40:20.577Z,30.73
2018-11-28T10:42:53.062Z,31.27
2018-11-28T10:45:20.842Z,31.17
2018-11-28T10:47:48.294Z,31.87
2018-11-28T10:50:15.891Z,30.30
2018-11-28T10:52:43.317Z,31.37
2018-11-28T10:55:13.075Z,29.23
2018-11-28T10:57:40.544Z,31.40
2018-11-28T11:00:11.677Z,30.53
2018-11-28T11:02:39.143Z,29.70
2018-11-28T11:05:07.526Z,27.40
2018-11-28T11:07:35.011Z,32.20
2018-11-28T11:10:02.739Z,29.40
2018-11-28T11:12:30.225Z,28.27
2018-11-28T11:14:57.635Z,28.27
2018-11-28T11:17:25.042Z,29.90
2018-11-28T11:19:52.529Z,30.27
2018-11-28T11:22:20.020Z,29.70
2018-11-28T11:24:47.462Z,28.97
2018-11-28T11:27:14.920Z,28.90
2018-11-28T11:29:42.378Z,30.60
2018-11-28T11:32:09.763Z,31.10
2018-11-28T11:34:37.215Z,29.20
2018-11-28T11:37:05.095Z,30.30
2018-11-28T11:39:32.511Z,27.70
2018-11-28T11:41:59.973Z,28.77
2018-11-28T11:44:27.403Z,28.23
2018-11-28T11:46:54.819Z,28.80
2018-11-28T11:49:22.251Z,27.60
2018-11-28T11:51:49.712Z,27.27
2018-11-28T11:54:17.118Z,28.47
2018-11-28T11:56:44.562Z,26.10
2018-11-28T11:59:11.976Z,25.83
2018-11-28T12:01:39.433Z,26.27
2018-11-28T12:04:06.832Z,24.97
2018-11-28T12:06:34.264Z,26.80
2018-11-28T12:09:01.927Z,27.13
2018-11-28T12:11:29.380Z,26.27
2018-11-28T12:13:56.851Z,26.37
2018-11-28T12:16:24.300Z,25.77
2018-11-28T12:18:51.742Z,27.07
2018-11-28T12:21:19.204Z,27.10
2018-11-28T12:23:46.650Z,27.43
2018-11-28T12:26:14.194Z,27.77
2018-11-28T12:28:41.659Z,26.83
2018-11-28T12:31:09.090Z,26.20
2018-11-28T12:33:36.558Z,26.90
2018-11-28T12:36:04.168Z,25.93
2018-11-28T12:38:31.611Z,26.47
2018-11-28T12:40:59.006Z,27.67
2018-11-28T12:43:26.447Z,26.10
2018-11-28T12:45:53.862Z,27.03
2018-11-28T12:48:21.299Z,26.80
2018-11-28T12:50:48.758Z,26.90
2018-11-28T12:53:16.144Z,27.00
2018-11-28T12:55:43.619Z,26.40
2018-11-28T12:58:15.555Z,25.33
2018-11-28T13:00:42.969Z,26.13
2018-11-28T13:03:11.839Z,25.20
2018-11-28T13:05:39.319Z,27.63
2018-11-28T13:08:06.749Z,24.97
2018-11-28T13:10:35.512Z,27.03
2018-11-28T13:13:03.617Z,26.60
2018-11-28T13:15:31.067Z,27.40
2018-11-28T13:17:58.448Z,25.30
2018-11-28T13:20:25.911Z,25.87
2018-11-28T13:22:54.438Z,26.67
2018-11-28T13:25:23.751Z,25.80
2018-11-28T13:27:51.244Z,26.40
2018-11-28T13:30:19.450Z,27.87
2018-11-28T13:32:47.490Z,25.43
2018-11-28T13:35:21.789Z,25.40
2018-11-28T13:37:51.316Z,27.07
2018-11-28T13:40:19.326Z,26.95
2018-11-28T13:42:46.869Z,27.95
2018-11-28T13:45:18.248Z,27.93
2018-11-28T13:47:46.949Z,28.02
2018-11-28T13:50:14.414Z,26.97
2018-11-28T13:52:41.875Z,26.62
2018-11-28T13:55:42.992Z,27.40
2018-11-28T13:58:10.483Z,27.90
2018-11-28T14:00:38.018Z,28.95
2018-11-28T14:03:05.734Z,27.45
2018-11-28T14:05:33.251Z,25.60
2018-11-28T14:08:00.783Z,27.02
2018-11-28T14:10:28.222Z,26.80
2018-11-28T14:12:55.671Z,39.90
2018-11-28T14:15:23.206Z,29.30
2018-11-28T14:17:54.097Z,26.68
2018-11-28T14:20:21.583Z,27.70
2018-11-28T14:22:49.087Z,26.90
2018-11-28T14:25:16.611Z,26.55
2018-11-28T14:27:44.181Z,27.10
2018-11-28T14:30:13.933Z,29.10
2018-11-28T14:32:41.435Z,26.85
2018-11-28T14:35:09.882Z,26.87
2018-11-28T14:37:37.436Z,27.30
2018-11-28T14:40:09.654Z,27.58
2018-11-28T14:42:37.197Z,25.15
2018-11-28T14:45:08.034Z,26.10
2018-11-28T14:47:35.520Z,28.17
2018-11-28T14:50:03.758Z,27.05
2018-11-28T14:52:31.286Z,27.52
2018-11-28T14:54:58.782Z,28.23
2018-11-28T14:57:26.358Z,27.07
2018-11-28T14:59:53.745Z,26.52
2018-11-28T15:02:21.251Z,25.55
2018-11-28T15:04:48.853Z,26.75
2018-11-28T15:07:16.527Z,26.45
2018-11-28T15:09:44.294Z,28.15
2018-11-28T15:12:12.870Z,24.70
2018-11-28T15:14:40.350Z,24.63
2018-11-28T15:17:07.923Z,25.12
2018-11-28T15:19:35.389Z,26.05
2018-11-28T15:22:03.184Z,25.52
2018-11-28T15:24:30.686Z,25.05
2018-11-28T15:26:58.185Z,27.07
2018-11-28T15:29:25.664Z,26.02
2018-11-28T15:31:53.087Z,25.90
2018-11-28T15:34:20.521Z,26.10
2018-11-28T15:36:48.051Z,26.15
2018-11-28T15:39:15.672Z,26.82
2018-11-28T15:41:43.429Z,25.97
2018-11-28T15:44:10.989Z,25.00
2018-11-28T15:46:38.692Z,25.90
2018-11-28T15:49:06.727Z,26.65
2018-11-28T15:51:34.229Z,26.87
2018-11-28T15:54:01.891Z,25.37
2018-11-28T15:56:29.447Z,25.25
2018-11-28T15:58:57.022Z,25.12
2018-11-28T16:01:24.526Z,26.70
2018-11-28T16:03:53.012Z,26.93
2018-11-28T16:06:20.490Z,27.73
2018-11-28T16:08:47.913Z,27.13
2018-11-28T16:11:16.831Z,26.15
2018-11-28T16:13:44.287Z,26.85
2018-11-28T16:16:11.852Z,24.00
2018-11-28T16:18:39.302Z,24.27
2018-11-28T16:21:06.778Z,26.00
2018-11-28T16:23:34.473Z,25.05
2018-11-28T16:26:02.138Z,24.87
2018-11-28T16:28:29.630Z,24.50
2018-11-28T16:30:57.115Z,26.55
2018-11-28T16:33:24.595Z,27.73
2018-11-28T16:35:52.107Z,26.10
2018-11-28T16:38:19.605Z,25.00
2018-11-28T16:40:47.195Z,27.48
2018-11-28T16:43:14.752Z,27.42
2018-11-28T16:45:42.210Z,25.72
2018-11-28T16:48:09.735Z,25.43
2018-11-28T16:50:37.270Z,27.35
2018-11-28T16:53:05.335Z,25.40
2018-11-28T16:55:32.942Z,26.07
2018-11-28T16:58:01.194Z,26.35
2018-11-28T17:00:30.281Z,24.80
2018-11-28T17:02:57.747Z,24.80
2018-11-28T17:05:25.358Z,23.27
2018-11-28T17:07:53.232Z,25.00
2018-11-28T17:10:23.965Z,25.08
2018-11-28T17:12:52.082Z,23.87
2018-11-28T17:15:19.830Z,25.92
2018-11-28T17:17:47.304Z,23.10
2018-11-28T17:20:15.706Z,25.85
2018-11-28T17:22:43.439Z,24.82
2018-11-28T17:25:13.266Z,24.35
2018-11-28T17:27:40.703Z,26.07
2018-11-28T17:30:11.147Z,24.65
2018-11-28T17:32:38.659Z,23.12
2018-11-28T17:35:07.518Z,23.05
2018-11-28T17:37:35.006Z,24.85
2018-11-28T17:40:02.719Z,24.82
2018-11-28T17:42:30.198Z,26.30
2018-11-28T17:44:57.747Z,24.57
2018-11-28T17:47:25.343Z,26.52
2018-11-28T17:49:52.866Z,25.02
2018-11-28T17:52:20.441Z,23.65
2018-11-28T17:54:48.001Z,23.45
2018-11-28T17:57:15.608Z,25.08
2018-11-28T17:59:43.279Z,24.90
2018-11-28T18:02:10.910Z,25.00
2018-11-28T18:04:38.529Z,23.27
2018-11-28T18:07:06.048Z,24.40
2018-11-28T18:09:33.619Z,26.40
2018-11-28T18:12:01.227Z,24.40
2018-11-28T18:14:28.822Z,26.85
2018-11-28T18:16:56.381Z,25.32
2018-11-28T18:19:23.961Z,26.87
2018-11-28T18:21:51.393Z,26.65
2018-11-28T18:24:18.931Z,26.75
2018-11-28T18:26:46.517Z,25.50
2018-11-28T18:29:14.035Z,28.62
2018-11-28T18:31:41.699Z,26.52
2018-11-28T18:34:09.301Z,25.92
2018-11-28T18:36:36.807Z,27.85
2018-11-28T18:39:06.979Z,26.62
2018-11-28T18:41:34.776Z,28.87
2018-11-28T18:44:02.447Z,29.60
2018-11-28T18:46:29.939Z,30.72
2018-11-28T18:48:57.450Z,29.12
2018-11-28T18:51:24.915Z,29.32
2018-11-28T18:53:52.343Z,25.90
2018-11-28T18:56:19.829Z,29.52
2018-11-28T18:58:47.305Z,25.25
2018-11-28T19:01:14.916Z,27.48
2018-11-28T19:03:42.470Z,29.55
2018-11-28T19:06:09.996Z,26.68
2018-11-28T19:08:38.855Z,27.07
2018-11-28T19:11:06.341Z,27.15
2018-11-28T19:13:33.787Z,25.55
2018-11-28T19:16:02.376Z,28.02
2018-11-28T19:18:29.851Z,29.00
2018-11-28T19:20:57.406Z,26.42
2018-11-28T19:23:24.916Z,28.23
2018-11-28T19:25:52.422Z,28.57
2018-11-28T19:28:19.949Z,26.93
2018-11-28T19:30:47.718Z,27.95
2018-11-28T19:33:15.724Z,27.52
2018-11-28T19:35:43.231Z,29.70
2018-11-28T19:38:14.465Z,27.93
2018-11-28T19:40:50.739Z,29.12
2018-11-28T19:43:18.282Z,28.52
2018-11-28T19:45:45.855Z,27.30
2018-11-28T19:48:13.328Z,27.48
2018-11-28T19:50:41.079Z,25.30
2018-11-28T19:53:09.079Z,28.00
2018-11-28T19:55:36.547Z,28.35
2018-11-28T19:58:04.378Z,26.65
2018-11-28T20:00:31.935Z,29.90
2018-11-28T20:02:59.515Z,27.00
2018-11-28T20:05:27.579Z,26.45
2018-11-28T20:07:55.112Z,27.30
2018-11-28T20:10:23.004Z,24.87
2018-11-28T20:12:50.788Z,26.23
2018-11-28T20:15:21.903Z,26.82
2018-11-28T20:17:50.203Z,25.82
2018-11-28T20:20:17.918Z,24.55
2018-11-28T20:22:45.471Z,26.85
2018-11-28T20:25:15.202Z,24.27
2018-11-28T20:27:45.286Z,23.32
2018-11-28T20:30:45.727Z,26.40
2018-11-28T20:33:14.337Z,25.62
2018-11-28T20:35:42.895Z,24.63
2018-11-28T20:38:20.369Z,26.30
2018-11-28T20:40:47.790Z,24.67
2018-11-28T20:43:15.233Z,22.95
2018-11-28T20:45:42.722Z,24.32
2018-11-28T20:48:10.172Z,26.05
2018-11-28T20:50:37.563Z,25.97
2018-11-28T20:53:09.527Z,26.97
2018-11-28T20:55:37.211Z,25.45
2018-11-28T20:58:05.041Z,26.33
2018-11-28T21:00:32.538Z,27.42
2018-11-28T21:03:00.016Z,26.25
2018-11-28T21:05:27.819Z,25.57
2018-11-28T21:07:55.256Z,27.22
2018-11-28T21:10:22.792Z,26.87
2018-11-28T21:12:50.213Z,28.47
2018-11-28T21:15:17.655Z,28.75
2018-11-28T21:17:45.517Z,28.65
2018-11-28T21:20:17.699Z,26.62
2018-11-28T21:22:53.268Z,29.12
2018-11-28T21:25:20.712Z,29.02
2018-11-28T21:27:48.296Z,30.43
2018-11-28T21:30:17.667Z,30.00
2018-11-28T21:32:45.131Z,30.15
2018-11-28T21:35:14.718Z,30.90
2018-11-28T21:37:42.153Z,28.05
2018-11-28T21:40:10.145Z,26.57
2018-11-28T21:42:37.530Z,30.25
2018-11-28T21:45:08.518Z,30.35
2018-11-28T21:47:35.963Z,30.02
2018-11-28T21:50:03.946Z,31.93
2018-11-28T21:52:31.392Z,34.78
2018-11-28T21:54:58.778Z,29.63
2018-11-28T21:57:26.236Z,27.48
2018-11-28T21:59:53.685Z,31.93
2018-11-28T22:02:21.147Z,30.80
2018-11-28T22:04:48.570Z,28.25
2018-11-28T22:07:16.224Z,29.77
2018-11-28T22:09:43.683Z,32.42
2018-11-28T22:12:11.758Z,29.90
2018-11-28T22:14:39.199Z,27.42
2018-11-28T22:17:06.717Z,30.65
2018-11-28T22:19:34.319Z,31.87
2018-11-28T22:22:01.941Z,33.78
2018-11-28T22:24:29.393Z,30.23
2018-11-28T22:26:56.927Z,33.88
2018-11-28T22:29:24.360Z,31.33
2018-11-28T22:31:51.783Z,30.10
2018-11-28T22:34:19.218Z,30.20
2018-11-28T22:36:46.642Z,30.20
2018-11-28T22:39:14.077Z,27.60
2018-11-28T22:41:41.482Z,30.12
2018-11-28T22:44:09.065Z,29.48
2018-11-28T22:46:36.493Z,28.92
2018-11-28T22:49:04.116Z,31.10
2018-11-28T22:51:31.604Z,27.98
2018-11-28T22:53:59.023Z,26.20
2018-11-28T22:56:26.451Z,29.45
2018-11-28T22:58:53.865Z,27.45
2018-11-28T23:01:21.308Z,26.62
2018-11-28T23:03:48.927Z,29.00
2018-11-28T23:06:16.411Z,31.77
2018-11-28T23:08:43.948Z,26.60
2018-11-28T23:11:11.470Z,24.20
2018-11-28T23:13:39.014Z,26.52
2018-11-28T23:18:40.374Z,29.90
2018-11-28T23:21:07.810Z,26.05
2018-11-28T23:23:35.237Z,29.70
2018-11-28T23:26:02.968Z,27.37
2018-11-28T23:28:30.415Z,28.92
2018-11-28T23:30:57.822Z,27.45
2018-11-28T23:33:25.316Z,26.60
2018-11-28T23:35:52.728Z,29.45
2018-11-28T23:38:20.174Z,26.52
2018-11-28T23:40:47.585Z,26.68
2018-11-28T23:43:15.039Z,26.82
2018-11-28T23:45:42.447Z,29.18
2018-11-28T23:48:09.891Z,24.75
2018-11-28T23:50:37.318Z,25.57
2018-11-28T23:53:04.920Z,29.72
2018-11-28T23:55:32.366Z,26.25
2018-11-28T23:57:59.758Z,32.03
